sensor_id;sensor_type;location;lat;lon;timestamp;pressure;altitude;pressure_sealevel;temperature;humidity
13476;BME280;6810;63.824;20.288;2023-02-01T00:00:32;99086.88;;;-9.76;93.84
13476;BME280;6810;63.824;20.288;2023-02-01T00:03:19;99090.31;;;-9.72;94.16
13476;BME280;6810;63.824;20.288;2023-02-01T00:06:06;99085.13;;;-9.71;93.79
13476;BME280;6810;63.824;20.288;2023-02-01T00:08:54;99084.25;;;-9.68;93.80
13476;BME280;6810;63.824;20.288;2023-02-01T00:11:41;99084.22;;;-9.64;93.73
13476;BME280;6810;63.824;20.288;2023-02-01T00:14:28;99081.63;;;-9.61;94.18
13476;BME280;6810;63.824;20.288;2023-02-01T00:17:16;99087.66;;;-9.59;94.29
13476;BME280;6810;63.824;20.288;2023-02-01T00:20:03;99085.94;;;-9.55;93.62
13476;BME280;6810;63.824;20.288;2023-02-01T00:22:50;99097.94;;;-9.53;93.48
13476;BME280;6810;63.824;20.288;2023-02-01T00:25:37;99087.59;;;-9.50;94.50
13476;BME280;6810;63.824;20.288;2023-02-01T00:28:23;99100.47;;;-9.48;93.83
13476;BME280;6810;63.824;20.288;2023-02-01T00:31:11;99087.56;;;-9.45;93.68
13476;BME280;6810;63.824;20.288;2023-02-01T00:33:58;99053.31;;;-9.67;93.71
13476;BME280;6810;63.824;20.288;2023-02-01T00:36:45;99078.16;;;-9.49;93.63
13476;BME280;6810;63.824;20.288;2023-02-01T00:39:32;98990.81;;;-9.99;94.28
13476;BME280;6810;63.824;20.288;2023-02-01T00:42:19;99090.09;;;-9.38;94.39
13476;BME280;6810;63.824;20.288;2023-02-01T00:45:06;99098.69;;;-9.33;94.43
13476;BME280;6810;63.824;20.288;2023-02-01T00:47:53;99102.13;;;-9.31;93.84
13476;BME280;6810;63.824;20.288;2023-02-01T00:50:43;99096.97;;;-9.29;93.66
13476;BME280;6810;63.824;20.288;2023-02-01T00:53:31;99096.06;;;-9.27;94.21
13476;BME280;6810;63.824;20.288;2023-02-01T00:56:18;99072.94;;;-9.40;94.35
13476;BME280;6810;63.824;20.288;2023-02-01T00:59:05;99090.91;;;-9.28;94.56
13476;BME280;6810;63.824;20.288;2023-02-01T01:01:52;99015.59;;;-9.72;94.17
13476;BME280;6810;63.824;20.288;2023-02-01T01:04:40;99107.22;;;-9.22;94.00
13476;BME280;6810;63.824;20.288;2023-02-01T01:07:27;99108.91;;;-9.21;94.23
13476;BME280;6810;63.824;20.288;2023-02-01T01:10:15;99098.63;;;-9.24;93.79
13476;BME280;6810;63.824;20.288;2023-02-01T01:13:02;99092.59;;;-9.24;94.08
13476;BME280;6810;63.824;20.288;2023-02-01T01:15:49;99107.19;;;-9.17;94.07
13476;BME280;6810;63.824;20.288;2023-02-01T01:18:37;99103.75;;;-9.16;94.24
13476;BME280;6810;63.824;20.288;2023-02-01T01:21:25;99108.91;;;-9.16;94.39
13476;BME280;6810;63.824;20.288;2023-02-01T01:24:12;99085.78;;;-9.33;93.86
13476;BME280;6810;63.824;20.288;2023-02-01T01:26:59;99114.91;;;-9.14;94.13
13476;BME280;6810;63.824;20.288;2023-02-01T01:29:46;99108.03;;;-9.20;94.45
13476;BME280;6810;63.824;20.288;2023-02-01T01:32:33;99096.06;;;-9.25;94.41
13476;BME280;6810;63.824;20.288;2023-02-01T01:35:20;99108.00;;;-9.15;93.74
13476;BME280;6810;63.824;20.288;2023-02-01T01:38:09;99108.91;;;-9.16;93.81
13476;BME280;6810;63.824;20.288;2023-02-01T01:40:56;99112.34;;;-9.16;94.04
13476;BME280;6810;63.824;20.288;2023-02-01T01:43:49;99094.38;;;-9.28;93.91
13476;BME280;6810;63.824;20.288;2023-02-01T01:46:37;99103.75;;;-9.19;94.17
13476;BME280;6810;63.824;20.288;2023-02-01T01:49:25;99106.31;;;-9.16;94.27
13476;BME280;6810;63.824;20.288;2023-02-01T01:52:13;99072.94;;;-9.40;93.75
13476;BME280;6810;63.824;20.288;2023-02-01T01:55:00;99108.91;;;-9.18;94.58
13476;BME280;6810;63.824;20.288;2023-02-01T01:57:54;99125.25;;;-9.19;94.49
13476;BME280;6810;63.824;20.288;2023-02-01T02:00:44;99122.69;;;-9.20;93.51
13476;BME280;6810;63.824;20.288;2023-02-01T02:03:40;99122.69;;;-9.22;93.97
13476;BME280;6810;63.824;20.288;2023-02-01T02:06:55;99130.44;;;-9.23;93.91
13476;BME280;6810;63.824;20.288;2023-02-01T02:09:43;99127.00;;;-9.25;94.01
13476;BME280;6810;63.824;20.288;2023-02-01T02:12:31;99120.97;;;-9.27;94.37
13476;BME280;6810;63.824;20.288;2023-02-01T02:15:19;99138.19;;;-9.28;94.05
13476;BME280;6810;63.824;20.288;2023-02-01T02:21:33;99131.31;;;-9.32;94.28
13476;BME280;6810;63.824;20.288;2023-02-01T02:34:32;99153.69;;;-9.40;93.71
13476;BME280;6810;63.824;20.288;2023-02-01T02:40:37;99155.47;;;-9.43;94.10
13476;BME280;6810;63.824;20.288;2023-02-01T02:43:34;99157.19;;;-9.45;94.13
13476;BME280;6810;63.824;20.288;2023-02-01T02:46:45;99161.47;;;-9.47;93.88
13476;BME280;6810;63.824;20.288;2023-02-01T02:49:49;99162.34;;;-9.51;93.38
13476;BME280;6810;63.824;20.288;2023-02-01T02:52:48;99165.81;;;-9.52;93.76
13476;BME280;6810;63.824;20.288;2023-02-01T02:55:37;99168.41;;;-9.55;93.43
13476;BME280;6810;63.824;20.288;2023-02-01T02:58:07;99165.81;;;-9.57;93.73
13476;BME280;6810;63.824;20.288;2023-02-01T03:00:54;99152.13;;;-9.68;93.25
13476;BME280;6810;63.824;20.288;2023-02-01T03:03:42;99171.84;;;-9.62;93.17
13476;BME280;6810;63.824;20.288;2023-02-01T03:06:38;99179.56;;;-9.64;93.21
13476;BME280;6810;63.824;20.288;2023-02-01T03:09:10;99170.16;;;-9.66;93.59
13476;BME280;6810;63.824;20.288;2023-02-01T03:11:45;99176.16;;;-9.69;93.49
13476;BME280;6810;63.824;20.288;2023-02-01T03:14:36;99159.88;;;-9.80;93.25
13476;BME280;6810;63.824;20.288;2023-02-01T03:17:30;99165.03;;;-9.77;93.00
13476;BME280;6810;63.824;20.288;2023-02-01T03:20:20;99165.88;;;-9.75;93.14
13476;BME280;6810;63.824;20.288;2023-02-01T03:23:11;99099.06;;;-10.18;93.24
13476;BME280;6810;63.824;20.288;2023-02-01T03:26:02;99171.03;;;-9.81;93.00
13476;BME280;6810;63.824;20.288;2023-02-01T03:28:57;99181.34;;;-9.84;93.33
13476;BME280;6810;63.824;20.288;2023-02-01T03:31:46;99176.19;;;-9.85;93.54
13476;BME280;6810;63.824;20.288;2023-02-01T03:34:34;99159.09;;;-10.01;93.33
13476;BME280;6810;63.824;20.288;2023-02-01T03:37:25;99187.38;;;-9.89;93.09
13476;BME280;6810;63.824;20.288;2023-02-01T03:40:13;99188.25;;;-9.92;92.59
13476;BME280;6810;63.824;20.288;2023-02-01T03:43:04;99181.38;;;-9.94;92.97
13476;BME280;6810;63.824;20.288;2023-02-01T03:45:58;99190.81;;;-9.96;92.54
13476;BME280;6810;63.824;20.288;2023-02-01T03:48:48;99193.41;;;-9.99;92.91
13476;BME280;6810;63.824;20.288;2023-02-01T03:51:40;99193.41;;;-10.01;92.62
13476;BME280;6810;63.824;20.288;2023-02-01T03:54:28;99198.56;;;-10.02;93.12
13476;BME280;6810;63.824;20.288;2023-02-01T03:57:22;99203.69;;;-10.04;92.44
13476;BME280;6810;63.824;20.288;2023-02-01T04:00:23;99122.31;;;-10.53;93.13
13476;BME280;6810;63.824;20.288;2023-02-01T04:03:10;99178.03;;;-10.23;92.61
13476;BME280;6810;63.824;20.288;2023-02-01T04:05:58;99201.16;;;-10.10;92.87
13476;BME280;6810;63.824;20.288;2023-02-01T04:08:45;99197.75;;;-10.12;93.23
13476;BME280;6810;63.824;20.288;2023-02-01T04:11:32;99164.28;;;-10.33;92.99
13476;BME280;6810;63.824;20.288;2023-02-01T04:14:19;99195.19;;;-10.15;92.32
13476;BME280;6810;63.824;20.288;2023-02-01T04:17:06;99198.59;;;-10.16;92.25
13476;BME280;6810;63.824;20.288;2023-02-01T04:19:53;99207.19;;;-10.17;92.36
13476;BME280;6810;63.824;20.288;2023-02-01T04:22:40;99196.91;;;-10.21;92.67
13476;BME280;6810;63.824;20.288;2023-02-01T04:25:27;99208.91;;;-10.19;92.24
13476;BME280;6810;63.824;20.288;2023-02-01T04:28:14;99203.75;;;-10.20;92.42
13476;BME280;6810;63.824;20.288;2023-02-01T04:31:01;99198.63;;;-10.23;92.44
13476;BME280;6810;63.824;20.288;2023-02-01T04:33:48;99198.59;;;-10.22;92.29
13476;BME280;6810;63.824;20.288;2023-02-01T04:36:35;99196.03;;;-10.26;92.33
13476;BME280;6810;63.824;20.288;2023-02-01T04:39:22;99208.91;;;-10.22;93.05
13476;BME280;6810;63.824;20.288;2023-02-01T04:42:09;99205.50;;;-10.24;93.05
13476;BME280;6810;63.824;20.288;2023-02-01T04:44:56;99205.50;;;-10.24;92.56
13476;BME280;6810;63.824;20.288;2023-02-01T04:47:43;99207.22;;;-10.24;92.42
13476;BME280;6810;63.824;20.288;2023-02-01T04:50:30;99200.34;;;-10.27;93.02
13476;BME280;6810;63.824;20.288;2023-02-01T04:53:17;99202.94;;;-10.25;92.70
13476;BME280;6810;63.824;20.288;2023-02-01T04:56:04;99204.63;;;-10.26;92.18
13476;BME280;6810;63.824;20.288;2023-02-01T04:58:51;99204.63;;;-10.26;92.44
13476;BME280;6810;63.824;20.288;2023-02-01T05:01:38;99220.94;;;-10.25;92.63
13476;BME280;6810;63.824;20.288;2023-02-01T05:04:25;99208.91;;;-10.31;92.72
13476;BME280;6810;63.824;20.288;2023-02-01T05:07:12;99210.63;;;-10.34;92.81
13476;BME280;6810;63.824;20.288;2023-02-01T05:09:59;99223.53;;;-10.27;93.01
13476;BME280;6810;63.824;20.288;2023-02-01T05:12:47;99225.22;;;-10.30;93.00
13476;BME280;6810;63.824;20.288;2023-02-01T05:15:33;99232.06;;;-10.28;92.05
13476;BME280;6810;63.824;20.288;2023-02-01T05:18:20;99240.69;;;-10.27;92.71
13476;BME280;6810;63.824;20.288;2023-02-01T05:21:07;99241.50;;;-10.28;92.12
13476;BME280;6810;63.824;20.288;2023-02-01T05:23:54;99246.66;;;-10.28;92.60
13476;BME280;6810;63.824;20.288;2023-02-01T05:26:56;99250.09;;;-10.29;92.87
13476;BME280;6810;63.824;20.288;2023-02-01T05:29:43;99239.81;;;-10.31;92.54
13476;BME280;6810;63.824;20.288;2023-02-01T05:32:30;99251.81;;;-10.31;92.34
13476;BME280;6810;63.824;20.288;2023-02-01T05:35:18;99196.03;;;-10.65;92.48
13476;BME280;6810;63.824;20.288;2023-02-01T05:38:05;99254.38;;;-10.33;92.63
13476;BME280;6810;63.824;20.288;2023-02-01T05:40:52;99256.94;;;-10.34;92.63
13476;BME280;6810;63.824;20.288;2023-02-01T05:43:39;99268.97;;;-10.35;92.30
13476;BME280;6810;63.824;20.288;2023-02-01T05:46:26;99266.41;;;-10.36;91.98
13476;BME280;6810;63.824;20.288;2023-02-01T05:49:15;99270.69;;;-10.37;92.17
13476;BME280;6810;63.824;20.288;2023-02-01T05:52:02;99222.59;;;-10.65;92.11
13476;BME280;6810;63.824;20.288;2023-02-01T05:54:49;99289.56;;;-10.39;92.80
13476;BME280;6810;63.824;20.288;2023-02-01T05:57:36;99290.41;;;-10.40;91.79
13476;BME280;6810;63.824;20.288;2023-02-01T06:00:23;99269.78;;;-10.55;91.95
13476;BME280;6810;63.824;20.288;2023-02-01T06:03:10;99299.88;;;-10.42;92.30
13476;BME280;6810;63.824;20.288;2023-02-01T06:05:57;99220.00;;;-10.94;91.68
13476;BME280;6810;63.824;20.288;2023-02-01T06:08:45;99296.41;;;-10.47;92.44
13476;BME280;6810;63.824;20.288;2023-02-01T06:11:32;99303.25;;;-10.51;91.92
13476;BME280;6810;63.824;20.288;2023-02-01T06:14:19;99311.84;;;-10.49;91.66
13476;BME280;6810;63.824;20.288;2023-02-01T06:17:06;99275.78;;;-10.73;92.59
13476;BME280;6810;63.824;20.288;2023-02-01T06:19:53;99305.81;;;-10.52;92.56
13476;BME280;6810;63.824;20.288;2023-02-01T06:22:41;99315.28;;;-10.54;91.76
13476;BME280;6810;63.824;20.288;2023-02-01T06:25:27;99308.38;;;-10.61;92.43
13476;BME280;6810;63.824;20.288;2023-02-01T06:28:15;99328.13;;;-10.57;92.45
13476;BME280;6810;63.824;20.288;2023-02-01T06:31:05;99337.56;;;-10.61;91.87
13476;BME280;6810;63.824;20.288;2023-02-01T06:33:56;99336.69;;;-10.63;92.16
13476;BME280;6810;63.824;20.288;2023-02-01T06:36:44;99337.53;;;-10.67;91.60
13476;BME280;6810;63.824;20.288;2023-02-01T06:39:31;99340.94;;;-10.66;91.85
13476;BME280;6810;63.824;20.288;2023-02-01T06:42:18;99273.06;;;-11.14;92.29
13476;BME280;6810;63.824;20.288;2023-02-01T06:45:05;99344.38;;;-10.73;92.38
13476;BME280;6810;63.824;20.288;2023-02-01T06:47:52;99357.22;;;-10.72;92.12
13476;BME280;6810;63.824;20.288;2023-02-01T06:50:39;99363.22;;;-10.74;91.45
13476;BME280;6810;63.824;20.288;2023-02-01T06:53:27;99369.22;;;-10.75;91.66
13476;BME280;6810;63.824;20.288;2023-02-01T06:56:14;99362.31;;;-10.85;91.55
13476;BME280;6810;63.824;20.288;2023-02-01T06:59:04;99375.22;;;-10.79;91.38
13476;BME280;6810;63.824;20.288;2023-02-01T07:01:51;99371.75;;;-10.81;91.96
13476;BME280;6810;63.824;20.288;2023-02-01T07:04:18;99377.75;;;-10.82;91.94
13476;BME280;6810;63.824;20.288;2023-02-01T07:06:45;99391.50;;;-10.83;91.49
13476;BME280;6810;63.824;20.288;2023-02-01T07:09:12;99390.63;;;-10.85;91.65
13476;BME280;6810;63.824;20.288;2023-02-01T07:11:40;99389.75;;;-10.86;92.11
13476;BME280;6810;63.824;20.288;2023-02-01T07:14:10;99392.31;;;-10.88;91.14
13476;BME280;6810;63.824;20.288;2023-02-01T07:16:38;99378.53;;;-10.96;91.46
13476;BME280;6810;63.824;20.288;2023-02-01T07:19:05;99374.25;;;-11.00;91.56
13476;BME280;6810;63.824;20.288;2023-02-01T07:21:31;99400.00;;;-10.92;91.24
13476;BME280;6810;63.824;20.288;2023-02-01T07:23:59;99406.00;;;-10.93;91.17
13476;BME280;6810;63.824;20.288;2023-02-01T07:26:45;99395.66;;;-11.02;91.40
13476;BME280;6810;63.824;20.288;2023-02-01T07:29:32;99408.56;;;-10.95;91.29
13476;BME280;6810;63.824;20.288;2023-02-01T07:32:19;99399.97;;;-10.97;91.13
13476;BME280;6810;63.824;20.288;2023-02-01T07:35:07;99390.53;;;-11.01;91.01
13476;BME280;6810;63.824;20.288;2023-02-01T07:37:53;99403.41;;;-11.01;91.17
13476;BME280;6810;63.824;20.288;2023-02-01T07:40:41;99411.09;;;-11.01;91.19
13476;BME280;6810;63.824;20.288;2023-02-01T07:43:29;99413.66;;;-11.02;90.95
13476;BME280;6810;63.824;20.288;2023-02-01T07:46:16;99409.34;;;-11.03;90.94
13476;BME280;6810;63.824;20.288;2023-02-01T07:49:03;99412.78;;;-11.06;91.83
13476;BME280;6810;63.824;20.288;2023-02-01T07:51:50;99426.50;;;-11.07;91.71
13476;BME280;6810;63.824;20.288;2023-02-01T07:54:37;99296.66;;;-11.84;91.08
13476;BME280;6810;63.824;20.288;2023-02-01T07:57:24;99428.19;;;-11.09;91.37
13476;BME280;6810;63.824;20.288;2023-02-01T08:00:12;99440.19;;;-11.09;91.21
13476;BME280;6810;63.824;20.288;2023-02-01T08:02:58;99429.88;;;-11.14;91.26
13476;BME280;6810;63.824;20.288;2023-02-01T08:05:45;99431.59;;;-11.16;91.22
13476;BME280;6810;63.824;20.288;2023-02-01T08:08:32;99444.47;;;-11.13;91.81
13476;BME280;6810;63.824;20.288;2023-02-01T08:11:20;99444.47;;;-11.13;91.14
13476;BME280;6810;63.824;20.288;2023-02-01T08:14:08;99444.47;;;-11.13;91.86
13476;BME280;6810;63.824;20.288;2023-02-01T08:16:55;99448.72;;;-11.16;91.02
13476;BME280;6810;63.824;20.288;2023-02-01T08:19:42;99455.56;;;-11.14;90.90
13476;BME280;6810;63.824;20.288;2023-02-01T08:22:31;99453.88;;;-11.13;91.73
13476;BME280;6810;63.824;20.288;2023-02-01T08:25:20;99457.28;;;-11.19;90.80
13476;BME280;6810;63.824;20.288;2023-02-01T08:28:07;99461.56;;;-11.15;91.84
13476;BME280;6810;63.824;20.288;2023-02-01T08:30:54;99452.97;;;-11.20;91.34
13476;BME280;6810;63.824;20.288;2023-02-01T08:33:42;99459.00;;;-11.15;91.81
13476;BME280;6810;63.824;20.288;2023-02-01T08:36:30;99459.00;;;-11.15;91.41
13476;BME280;6810;63.824;20.288;2023-02-01T08:39:17;99437.44;;;-11.32;90.96
13476;BME280;6810;63.824;20.288;2023-02-01T08:42:05;99477.88;;;-11.14;91.56
13476;BME280;6810;63.824;20.288;2023-02-01T08:44:50;99489.84;;;-11.13;90.84
13476;BME280;6810;63.824;20.288;2023-02-01T08:47:38;99483.84;;;-11.14;91.90
13476;BME280;6810;63.824;20.288;2023-02-01T08:50:25;99484.72;;;-11.13;91.56
13476;BME280;6810;63.824;20.288;2023-02-01T08:53:12;99463.25;;;-11.18;90.86
13476;BME280;6810;63.824;20.288;2023-02-01T08:56:00;99388.44;;;-11.65;91.35
13476;BME280;6810;63.824;20.288;2023-02-01T08:58:47;99476.16;;;-11.11;90.99
13476;BME280;6810;63.824;20.288;2023-02-01T09:01:30;99484.75;;;-11.09;91.30
13476;BME280;6810;63.824;20.288;2023-02-01T09:03:57;99484.75;;;-11.09;91.35
13476;BME280;6810;63.824;20.288;2023-02-01T09:06:24;99486.47;;;-11.06;91.40
13476;BME280;6810;63.824;20.288;2023-02-01T09:08:51;99372.91;;;-11.77;91.21
13476;BME280;6810;63.824;20.288;2023-02-01T09:11:18;99484.78;;;-11.04;91.30
13476;BME280;6810;63.824;20.288;2023-02-01T09:13:48;99479.63;;;-11.06;91.59
13476;BME280;6810;63.824;20.288;2023-02-01T09:16:15;99488.25;;;-11.01;91.56
13476;BME280;6810;63.824;20.288;2023-02-01T09:18:42;99483.13;;;-10.99;91.70
13476;BME280;6810;63.824;20.288;2023-02-01T09:21:29;99477.97;;;-10.99;91.43
13476;BME280;6810;63.824;20.288;2023-02-01T09:24:16;99485.72;;;-10.93;91.30
13476;BME280;6810;63.824;20.288;2023-02-01T09:27:04;99488.31;;;-10.90;91.11
13476;BME280;6810;63.824;20.288;2023-02-01T09:29:51;99496.06;;;-10.87;91.20
13476;BME280;6810;63.824;20.288;2023-02-01T09:32:38;99498.63;;;-10.84;91.83
13476;BME280;6810;63.824;20.288;2023-02-01T09:35:25;99494.38;;;-10.82;91.22
13476;BME280;6810;63.824;20.288;2023-02-01T09:38:12;99503.81;;;-10.78;91.50
13476;BME280;6810;63.824;20.288;2023-02-01T09:47:35;99498.72;;;-10.70;91.97
13476;BME280;6810;63.824;20.288;2023-02-01T09:50:35;99515.91;;;-10.63;91.37
13476;BME280;6810;63.824;20.288;2023-02-01T09:53:41;99456.56;;;-10.94;91.57
13476;BME280;6810;63.824;20.288;2023-02-01T09:56:56;99511.69;;;-10.55;91.77
13476;BME280;6810;63.824;20.288;2023-02-01T09:59:46;99521.16;;;-10.51;91.58
13476;BME280;6810;63.824;20.288;2023-02-01T10:02:39;99526.31;;;-10.47;92.43
13476;BME280;6810;63.824;20.288;2023-02-01T10:12:25;99527.22;;;-10.34;91.66
13476;BME280;6810;63.824;20.288;2023-02-01T10:15:39;99524.69;;;-10.28;91.75
13476;BME280;6810;63.824;20.288;2023-02-01T10:19:02;99523.00;;;-10.23;92.01
13476;BME280;6810;63.824;20.288;2023-02-01T10:21:57;99535.06;;;-10.18;92.75
13476;BME280;6810;63.824;20.288;2023-02-01T10:24:36;99516.16;;;-10.20;92.54
13476;BME280;6810;63.824;20.288;2023-02-01T10:27:19;99534.22;;;-10.08;92.71
13476;BME280;6810;63.824;20.288;2023-02-01T10:29:54;99535.09;;;-10.03;92.75
13476;BME280;6810;63.824;20.288;2023-02-01T10:32:42;99539.38;;;-9.97;92.65
13476;BME280;6810;63.824;20.288;2023-02-01T10:35:31;99538.56;;;-9.92;91.91
13476;BME280;6810;63.824;20.288;2023-02-01T10:38:31;99499.88;;;-10.11;92.91
13476;BME280;6810;63.824;20.288;2023-02-01T10:41:21;99542.91;;;-9.80;93.04
13476;BME280;6810;63.824;20.288;2023-02-01T10:44:25;99535.16;;;-9.82;92.58
13476;BME280;6810;63.824;20.288;2023-02-01T10:47:12;99546.38;;;-9.68;92.62
13476;BME280;6810;63.824;20.288;2023-02-01T10:56:13;99549.00;;;-9.47;92.87
13476;BME280;6810;63.824;20.288;2023-02-01T10:59:02;99545.56;;;-9.38;93.37
13476;BME280;6810;63.824;20.288;2023-02-01T11:02:00;99554.19;;;-9.32;93.26
13476;BME280;6810;63.824;20.288;2023-02-01T11:04:47;99561.94;;;-9.26;93.05
13476;BME280;6810;63.824;20.288;2023-02-01T11:07:34;99560.22;;;-9.19;93.19
13476;BME280;6810;63.824;20.288;2023-02-01T11:10:40;99554.19;;;-9.12;93.06
13476;BME280;6810;63.824;20.288;2023-02-01T11:13:30;99561.09;;;-9.05;92.94
13476;BME280;6810;63.824;20.288;2023-02-01T11:16:18;99556.81;;;-8.98;93.04
13476;BME280;6810;63.824;20.288;2023-02-01T11:19:05;99563.69;;;-8.93;93.55
13476;BME280;6810;63.824;20.288;2023-02-01T11:21:55;99562.81;;;-8.84;93.36
13476;BME280;6810;63.824;20.288;2023-02-01T11:24:45;99576.59;;;-8.78;93.16
13476;BME280;6810;63.824;20.288;2023-02-01T11:27:33;99578.28;;;-8.71;93.72
13476;BME280;6810;63.824;20.288;2023-02-01T11:30:41;99580.03;;;-8.64;93.88
13476;BME280;6810;63.824;20.288;2023-02-01T11:33:32;99557.66;;;-8.69;93.47
13476;BME280;6810;63.824;20.288;2023-02-01T11:36:26;99558.50;;;-8.63;93.66
13476;BME280;6810;63.824;20.288;2023-02-01T11:39:29;99580.00;;;-8.43;93.81
13476;BME280;6810;63.824;20.288;2023-02-01T11:42:17;99580.88;;;-8.36;94.21
13476;BME280;6810;63.824;20.288;2023-02-01T11:45:25;99580.88;;;-8.35;93.92
13476;BME280;6810;63.824;20.288;2023-02-01T11:48:15;99592.84;;;-8.22;93.65
13476;BME280;6810;63.824;20.288;2023-02-01T11:57:07;99555.88;;;-8.25;94.07
13476;BME280;6810;63.824;20.288;2023-02-01T12:12:01;99615.09;;;-7.71;94.58
13476;BME280;6810;63.824;20.288;2023-02-01T12:15:20;99615.06;;;-7.62;94.55
13476;BME280;6810;63.824;20.288;2023-02-01T12:21:58;99632.28;;;-7.49;94.74
13476;BME280;6810;63.824;20.288;2023-02-01T12:35:36;99630.44;;;-7.26;94.85
13476;BME280;6810;63.824;20.288;2023-02-01T12:41:01;99650.25;;;-7.18;95.07
13476;BME280;6810;63.824;20.288;2023-02-01T12:43:47;99650.22;;;-7.14;95.10
13476;BME280;6810;63.824;20.288;2023-02-01T12:46:51;99651.91;;;-7.09;94.98
13476;BME280;6810;63.824;20.288;2023-02-01T12:49:29;99633.03;;;-7.26;95.30
13476;BME280;6810;63.824;20.288;2023-02-01T12:52:02;99624.41;;;-7.28;94.76
13476;BME280;6810;63.824;20.288;2023-02-01T12:54:39;99632.13;;;-7.18;95.16
13476;BME280;6810;63.824;20.288;2023-02-01T12:57:17;99663.94;;;-6.97;95.24
13476;BME280;6810;63.824;20.288;2023-02-01T13:03:11;99656.13;;;-6.91;94.86
13476;BME280;6810;63.824;20.288;2023-02-01T13:05:50;99663.00;;;-6.87;95.20
13476;BME280;6810;63.824;20.288;2023-02-01T13:08:24;99663.03;;;-6.90;95.20
13476;BME280;6810;63.824;20.288;2023-02-01T13:11:12;99679.38;;;-6.82;95.25
13476;BME280;6810;63.824;20.288;2023-02-01T13:17:21;99687.13;;;-6.78;95.50
13476;BME280;6810;63.824;20.288;2023-02-01T13:20:28;99688.81;;;-6.75;95.56
13476;BME280;6810;63.824;20.288;2023-02-01T13:23:26;99702.63;;;-6.73;95.61
13476;BME280;6810;63.824;20.288;2023-02-01T13:26:14;99697.44;;;-6.72;95.38
13476;BME280;6810;63.824;20.288;2023-02-01T13:29:05;99693.13;;;-6.70;95.62
13476;BME280;6810;63.824;20.288;2023-02-01T13:41:56;99713.81;;;-6.64;95.60
13476;BME280;6810;63.824;20.288;2023-02-01T13:44:48;99701.75;;;-6.68;95.60
13476;BME280;6810;63.824;20.288;2023-02-01T13:47:45;99717.25;;;-6.62;95.89
13476;BME280;6810;63.824;20.288;2023-02-01T13:50:35;99726.72;;;-6.61;95.66
13476;BME280;6810;63.824;20.288;2023-02-01T13:53:35;99718.13;;;-6.69;95.51
13476;BME280;6810;63.824;20.288;2023-02-01T13:56:23;99660.47;;;-6.96;95.67
13476;BME280;6810;63.824;20.288;2023-02-01T13:59:51;99728.44;;;-6.58;95.74
13476;BME280;6810;63.824;20.288;2023-02-01T14:08:36;99743.13;;;-6.57;95.66
13476;BME280;6810;63.824;20.288;2023-02-01T14:11:37;99745.72;;;-6.57;95.45
13476;BME280;6810;63.824;20.288;2023-02-01T14:23:24;99762.97;;;-6.58;94.85
13476;BME280;6810;63.824;20.288;2023-02-01T14:26:16;99764.69;;;-6.55;95.30
13476;BME280;6810;63.824;20.288;2023-02-01T14:32:18;99757.78;;;-6.55;95.09
13476;BME280;6810;63.824;20.288;2023-02-01T14:35:08;99765.56;;;-6.56;95.29
13476;BME280;6810;63.824;20.288;2023-02-01T14:38:04;99775.06;;;-6.57;95.31
13476;BME280;6810;63.824;20.288;2023-02-01T14:40:51;99767.28;;;-6.58;95.34
13476;BME280;6810;63.824;20.288;2023-02-01T14:43:50;99774.22;;;-6.59;95.33
13476;BME280;6810;63.824;20.288;2023-02-01T14:46:18;99771.66;;;-6.62;95.12
13476;BME280;6810;63.824;20.288;2023-02-01T14:48:46;99775.97;;;-6.62;95.58
13476;BME280;6810;63.824;20.288;2023-02-01T14:51:16;99789.78;;;-6.63;95.33
13476;BME280;6810;63.824;20.288;2023-02-01T14:53:45;99794.97;;;-6.65;94.92
13476;BME280;6810;63.824;20.288;2023-02-01T14:56:17;99802.75;;;-6.66;95.68
13476;BME280;6810;63.824;20.288;2023-02-01T14:59:00;99806.22;;;-6.72;95.51
13476;BME280;6810;63.824;20.288;2023-02-01T15:01:33;99814.84;;;-6.71;95.26
13476;BME280;6810;63.824;20.288;2023-02-01T15:04:11;99806.25;;;-6.79;95.33
13476;BME280;6810;63.824;20.288;2023-02-01T15:06:41;99812.28;;;-6.74;95.13
13476;BME280;6810;63.824;20.288;2023-02-01T15:09:25;99814.88;;;-6.77;95.29
13476;BME280;6810;63.824;20.288;2023-02-01T15:11:55;99820.91;;;-6.78;95.17
13476;BME280;6810;63.824;20.288;2023-02-01T15:14:23;99765.81;;;-7.17;94.89
13476;BME280;6810;63.824;20.288;2023-02-01T15:16:50;99826.97;;;-6.84;94.98
13476;BME280;6810;63.824;20.288;2023-02-01T15:19:22;99830.44;;;-6.86;95.41
13476;BME280;6810;63.824;20.288;2023-02-01T15:21:55;99834.75;;;-6.88;95.09
13476;BME280;6810;63.824;20.288;2023-02-01T15:24:25;99838.22;;;-6.89;95.17
13476;BME280;6810;63.824;20.288;2023-02-01T15:26:53;99850.31;;;-6.91;95.33
13476;BME280;6810;63.824;20.288;2023-02-01T15:29:23;99840.84;;;-6.94;95.07
13476;BME280;6810;63.824;20.288;2023-02-01T15:31:54;99844.28;;;-6.96;95.03
13476;BME280;6810;63.824;20.288;2023-02-01T15:34:21;99833.94;;;-7.05;94.94
13476;BME280;6810;63.824;20.288;2023-02-01T15:36:49;99841.69;;;-7.01;94.80
13476;BME280;6810;63.824;20.288;2023-02-01T15:39:29;99852.94;;;-7.03;94.95
13476;BME280;6810;63.824;20.288;2023-02-01T15:42:01;99862.41;;;-7.07;94.97
13476;BME280;6810;63.824;20.288;2023-02-01T15:44:40;99858.97;;;-7.07;95.16
13476;BME280;6810;63.824;20.288;2023-02-01T15:47:18;99866.72;;;-7.09;94.84
13476;BME280;6810;63.824;20.288;2023-02-01T15:49:53;99875.38;;;-7.11;94.68
13476;BME280;6810;63.824;20.288;2023-02-01T15:54:55;99852.97;;;-7.28;94.81
13476;BME280;6810;63.824;20.288;2023-02-01T15:57:30;99876.25;;;-7.18;94.94
13476;BME280;6810;63.824;20.288;2023-02-01T16:00:04;99887.44;;;-7.20;94.90
13476;BME280;6810;63.824;20.288;2023-02-01T16:02:52;99900.38;;;-7.21;95.13
13476;BME280;6810;63.824;20.288;2023-02-01T16:05:40;99819.38;;;-7.68;94.77
13476;BME280;6810;63.824;20.288;2023-02-01T16:08:30;99886.63;;;-7.26;94.82
13476;BME280;6810;63.824;20.288;2023-02-01T16:11:32;99902.16;;;-7.29;94.93
13476;BME280;6810;63.824;20.288;2023-02-01T16:14:20;99899.56;;;-7.31;94.85
13476;BME280;6810;63.824;20.288;2023-02-01T16:17:07;99896.97;;;-7.35;95.05
13476;BME280;6810;63.824;20.288;2023-02-01T16:19:55;99902.16;;;-7.35;94.87
13476;BME280;6810;63.824;20.288;2023-02-01T16:22:42;99911.63;;;-7.37;95.03
13476;BME280;6810;63.824;20.288;2023-02-01T16:25:29;99920.25;;;-7.38;94.87